sensor_id;sensor_type;location;lat;lon;timestamp;P1;durP1;ratioP1;P2;durP2;ratioP2
43819;SDS011;67762;52.476;6.046;2023-04-10T00:02:12;1999.90;;;999.90;;
43819;SDS011;67762;52.476;6.046;2023-04-10T00:04:38;1999.90;;;999.90;;
43819;SDS011;67762;52.476;6.046;2023-04-10T00:07:03;1999.90;;;999.90;;
43819;SDS011;67762;52.476;6.046;2023-04-10T00:09:29;1999.90;;;999.90;;
43819;SDS011;67762;52.476;6.046;2023-04-10T00:11:55;1999.90;;;999.90;;
43819;SDS011;67762;52.476;6.046;2023-04-10T00:14:22;1999.90;;;999.90;;
43819;SDS011;67762;52.476;6.046;2023-04-10T00:16:49;1999.90;;;999.90;;
43819;SDS011;67762;52.476;6.046;2023-04-10T00:19:15;1999.90;;;999.90;;
43819;SDS011;67762;52.476;6.046;2023-04-10T00:21:41;1999.90;;;999.90;;
43819;SDS011;67762;52.476;6.046;2023-04-10T00:24:07;1999.90;;;999.90;;
43819;SDS011;67762;52.476;6.046;2023-04-10T00:26:33;1999.90;;;999.90;;
43819;SDS011;67762;52.476;6.046;2023-04-10T00:28:59;1999.90;;;999.90;;
43819;SDS011;67762;52.476;6.046;2023-04-10T00:31:26;1999.90;;;999.90;;
43819;SDS011;67762;52.476;6.046;2023-04-10T00:33:51;1999.90;;;999.90;;
43819;SDS011;67762;52.476;6.046;2023-04-10T00:36:17;1999.90;;;999.90;;
43819;SDS011;67762;52.476;6.046;2023-04-10T00:38:43;1999.90;;;999.90;;
43819;SDS011;67762;52.476;6.046;2023-04-10T00:41:09;1999.90;;;999.90;;
43819;SDS011;67762;52.476;6.046;2023-04-10T00:43:35;1999.90;;;999.90;;
43819;SDS011;67762;52.476;6.046;2023-04-10T00:46:01;1999.90;;;999.90;;
43819;SDS011;67762;52.476;6.046;2023-04-10T00:48:27;1999.90;;;999.90;;
43819;SDS011;67762;52.476;6.046;2023-04-10T00:50:53;1999.90;;;999.90;;
43819;SDS011;67762;52.476;6.046;2023-04-10T00:53:20;1999.90;;;999.90;;
43819;SDS011;67762;52.476;6.046;2023-04-10T00:55:46;1999.90;;;999.90;;
43819;SDS011;67762;52.476;6.046;2023-04-10T00:58:13;1999.90;;;999.90;;
43819;SDS011;67762;52.476;6.046;2023-04-10T01:00:39;1999.90;;;999.90;;
43819;SDS011;67762;52.476;6.046;2023-04-10T01:03:06;1999.90;;;999.90;;
43819;SDS011;67762;52.476;6.046;2023-04-10T01:17:04;1999.90;;;999.90;;
43819;SDS011;67762;52.476;6.046;2023-04-10T01:22:07;1999.90;;;999.90;;
43819;SDS011;67762;52.476;6.046;2023-04-10T01:27:53;1999.90;;;999.90;;
43819;SDS011;67762;52.476;6.046;2023-04-10T01:30:31;1999.90;;;999.90;;
43819;SDS011;67762;52.476;6.046;2023-04-10T01:32:59;1999.90;;;999.90;;
43819;SDS011;67762;52.476;6.046;2023-04-10T01:35:28;1999.90;;;999.90;;
43819;SDS011;67762;52.476;6.046;2023-04-10T01:37:55;1999.90;;;999.90;;
43819;SDS011;67762;52.476;6.046;2023-04-10T01:40:23;1999.90;;;999.90;;
43819;SDS011;67762;52.476;6.046;2023-04-10T01:42:52;1999.90;;;999.90;;
43819;SDS011;67762;52.476;6.046;2023-04-10T01:45:26;1999.90;;;999.90;;
43819;SDS011;67762;52.476;6.046;2023-04-10T01:47:53;1999.90;;;999.90;;
43819;SDS011;67762;52.476;6.046;2023-04-10T01:50:21;1999.90;;;999.90;;
43819;SDS011;67762;52.476;6.046;2023-04-10T01:52:50;1999.90;;;999.90;;
43819;SDS011;67762;52.476;6.046;2023-04-10T01:55:22;1999.90;;;999.90;;
43819;SDS011;67762;52.476;6.046;2023-04-10T01:58:00;1999.90;;;999.90;;
43819;SDS011;67762;52.476;6.046;2023-04-10T02:00:27;1999.90;;;999.90;;
43819;SDS011;67762;52.476;6.046;2023-04-10T02:02:52;1999.90;;;999.90;;
43819;SDS011;67762;52.476;6.046;2023-04-10T02:05:18;1999.90;;;999.90;;
43819;SDS011;67762;52.476;6.046;2023-04-10T02:07:45;1999.90;;;999.90;;
43819;SDS011;67762;52.476;6.046;2023-04-10T02:11:10;1999.90;;;999.90;;
43819;SDS011;67762;52.476;6.046;2023-04-10T02:13:30;1999.90;;;999.90;;
43819;SDS011;67762;52.476;6.046;2023-04-10T02:15:59;1999.90;;;999.90;;
43819;SDS011;67762;52.476;6.046;2023-04-10T02:18:29;1999.90;;;999.90;;
43819;SDS011;67762;52.476;6.046;2023-04-10T02:20:58;1999.90;;;999.90;;
43819;SDS011;67762;52.476;6.046;2023-04-10T02:23:23;1999.90;;;999.90;;
43819;SDS011;67762;52.476;6.046;2023-04-10T02:25:49;1999.90;;;999.90;;
43819;SDS011;67762;52.476;6.046;2023-04-10T02:28:15;1999.90;;;999.90;;
43819;SDS011;67762;52.476;6.046;2023-04-10T02:30:40;1999.90;;;999.90;;
43819;SDS011;67762;52.476;6.046;2023-04-10T02:33:09;1999.90;;;999.90;;
43819;SDS011;67762;52.476;6.046;2023-04-10T02:35:35;1999.90;;;999.90;;
43819;SDS011;67762;52.476;6.046;2023-04-10T02:38:02;1999.90;;;999.90;;
43819;SDS011;67762;52.476;6.046;2023-04-10T02:40:28;1999.90;;;999.90;;
43819;SDS011;67762;52.476;6.046;2023-04-10T02:45:39;1999.90;;;999.90;;
43819;SDS011;67762;52.476;6.046;2023-04-10T02:48:07;1999.90;;;999.90;;
43819;SDS011;67762;52.476;6.046;2023-04-10T02:50:33;1999.90;;;999.90;;
43819;SDS011;67762;52.476;6.046;2023-04-10T02:52:59;1999.90;;;999.90;;
43819;SDS011;67762;52.476;6.046;2023-04-10T02:55:26;1999.90;;;999.90;;
43819;SDS011;67762;52.476;6.046;2023-04-10T02:57:52;1999.90;;;999.90;;
43819;SDS011;67762;52.476;6.046;2023-04-10T03:00:17;1999.90;;;999.90;;
43819;SDS011;67762;52.476;6.046;2023-04-10T03:03:06;1999.90;;;999.90;;
43819;SDS011;67762;52.476;6.046;2023-04-10T03:05:40;1999.90;;;999.90;;
43819;SDS011;67762;52.476;6.046;2023-04-10T03:08:06;1999.90;;;999.90;;
43819;SDS011;67762;52.476;6.046;2023-04-10T03:10:31;1999.90;;;999.90;;
43819;SDS011;67762;52.476;6.046;2023-04-10T03:12:57;1999.90;;;999.90;;
43819;SDS011;67762;52.476;6.046;2023-04-10T03:15:22;1999.90;;;999.90;;
43819;SDS011;67762;52.476;6.046;2023-04-10T03:17:48;1999.90;;;999.90;;
43819;SDS011;67762;52.476;6.046;2023-04-10T03:20:14;1999.90;;;999.90;;
43819;SDS011;67762;52.476;6.046;2023-04-10T03:22:41;1999.90;;;999.90;;
43819;SDS011;67762;52.476;6.046;2023-04-10T03:25:08;1999.90;;;999.90;;
43819;SDS011;67762;52.476;6.046;2023-04-10T03:27:34;1999.90;;;999.90;;
43819;SDS011;67762;52.476;6.046;2023-04-10T03:30:00;1999.90;;;999.90;;
43819;SDS011;67762;52.476;6.046;2023-04-10T03:32:31;1999.90;;;999.90;;
43819;SDS011;67762;52.476;6.046;2023-04-10T03:34:58;1999.90;;;999.90;;
43819;SDS011;67762;52.476;6.046;2023-04-10T03:37:23;1999.90;;;999.90;;
43819;SDS011;67762;52.476;6.046;2023-04-10T03:39:52;1999.90;;;999.90;;
43819;SDS011;67762;52.476;6.046;2023-04-10T03:42:18;1999.90;;;999.90;;
43819;SDS011;67762;52.476;6.046;2023-04-10T03:44:43;1999.90;;;999.90;;
43819;SDS011;67762;52.476;6.046;2023-04-10T03:47:09;1999.90;;;999.90;;
43819;SDS011;67762;52.476;6.046;2023-04-10T03:49:35;1999.90;;;999.90;;
43819;SDS011;67762;52.476;6.046;2023-04-10T03:52:04;1999.90;;;999.90;;
43819;SDS011;67762;52.476;6.046;2023-04-10T03:54:31;1999.90;;;999.90;;
43819;SDS011;67762;52.476;6.046;2023-04-10T03:56:56;1999.90;;;999.90;;
43819;SDS011;67762;52.476;6.046;2023-04-10T03:59:22;1999.90;;;999.90;;
43819;SDS011;67762;52.476;6.046;2023-04-10T04:01:48;1999.90;;;999.90;;
43819;SDS011;67762;52.476;6.046;2023-04-10T04:04:14;1999.90;;;999.90;;
43819;SDS011;67762;52.476;6.046;2023-04-10T04:06:49;1999.90;;;999.90;;
43819;SDS011;67762;52.476;6.046;2023-04-10T04:09:39;1999.90;;;999.90;;
43819;SDS011;67762;52.476;6.046;2023-04-10T04:12:37;1999.90;;;999.90;;
43819;SDS011;67762;52.476;6.046;2023-04-10T04:15:09;1999.90;;;999.90;;
43819;SDS011;67762;52.476;6.046;2023-04-10T04:17:55;1999.90;;;999.90;;
43819;SDS011;67762;52.476;6.046;2023-04-10T04:20:40;1999.90;;;999.90;;
43819;SDS011;67762;52.476;6.046;2023-04-10T04:23:17;1999.90;;;999.90;;
43819;SDS011;67762;52.476;6.046;2023-04-10T04:26:02;1999.90;;;999.90;;
43819;SDS011;67762;52.476;6.046;2023-04-10T04:28:46;1999.90;;;999.90;;
43819;SDS011;67762;52.476;6.046;2023-04-10T04:31:18;1999.90;;;999.90;;
43819;SDS011;67762;52.476;6.046;2023-04-10T04:34:04;1999.90;;;999.90;;
43819;SDS011;67762;52.476;6.046;2023-04-10T04:36:48;1999.90;;;999.90;;
43819;SDS011;67762;52.476;6.046;2023-04-10T04:39:46;1999.90;;;999.90;;
43819;SDS011;67762;52.476;6.046;2023-04-10T04:42:35;1999.90;;;999.90;;
43819;SDS011;67762;52.476;6.046;2023-04-10T04:45:16;1999.90;;;999.90;;
43819;SDS011;67762;52.476;6.046;2023-04-10T04:47:42;1999.90;;;999.90;;
43819;SDS011;67762;52.476;6.046;2023-04-10T04:50:27;1999.90;;;999.90;;
43819;SDS011;67762;52.476;6.046;2023-04-10T04:53:27;1999.90;;;999.90;;
43819;SDS011;67762;52.476;6.046;2023-04-10T04:56:12;1999.90;;;999.90;;
43819;SDS011;67762;52.476;6.046;2023-04-10T04:59:01;1999.90;;;999.90;;
43819;SDS011;67762;52.476;6.046;2023-04-10T05:01:33;1999.90;;;999.90;;
43819;SDS011;67762;52.476;6.046;2023-04-10T05:04:17;1999.90;;;999.90;;
43819;SDS011;67762;52.476;6.046;2023-04-10T05:07:01;1999.90;;;999.90;;
43819;SDS011;67762;52.476;6.046;2023-04-10T05:09:33;1999.90;;;999.90;;
43819;SDS011;67762;52.476;6.046;2023-04-10T05:12:18;1999.90;;;999.90;;
43819;SDS011;67762;52.476;6.046;2023-04-10T05:15:02;1999.90;;;999.90;;
43819;SDS011;67762;52.476;6.046;2023-04-10T05:17:39;1999.90;;;999.90;;
43819;SDS011;67762;52.476;6.046;2023-04-10T05:20:24;1999.90;;;999.90;;
43819;SDS011;67762;52.476;6.046;2023-04-10T05:23:13;1999.90;;;999.90;;
43819;SDS011;67762;52.476;6.046;2023-04-10T05:25:58;1999.90;;;999.90;;
43819;SDS011;67762;52.476;6.046;2023-04-10T05:28:49;1999.90;;;999.90;;
43819;SDS011;67762;52.476;6.046;2023-04-10T05:31:30;1999.90;;;999.90;;
43819;SDS011;67762;52.476;6.046;2023-04-10T05:34:08;1999.90;;;999.90;;
43819;SDS011;67762;52.476;6.046;2023-04-10T05:36:46;1999.90;;;999.90;;
43819;SDS011;67762;52.476;6.046;2023-04-10T05:39:28;1999.90;;;999.90;;
43819;SDS011;67762;52.476;6.046;2023-04-10T05:42:07;1999.90;;;999.90;;
43819;SDS011;67762;52.476;6.046;2023-04-10T05:44:53;1999.90;;;999.90;;
43819;SDS011;67762;52.476;6.046;2023-04-10T05:47:36;1999.90;;;999.90;;
43819;SDS011;67762;52.476;6.046;2023-04-10T05:50:15;1999.90;;;999.90;;
43819;SDS011;67762;52.476;6.046;2023-04-10T05:53:13;1999.90;;;999.90;;
43819;SDS011;67762;52.476;6.046;2023-04-10T05:55:44;1999.90;;;999.90;;
43819;SDS011;67762;52.476;6.046;2023-04-10T05:58:22;1999.90;;;999.90;;
43819;SDS011;67762;52.476;6.046;2023-04-10T06:01:05;1999.90;;;999.90;;
43819;SDS011;67762;52.476;6.046;2023-04-10T06:03:43;1999.90;;;999.90;;
43819;SDS011;67762;52.476;6.046;2023-04-10T06:06:09;1999.90;;;999.90;;
43819;SDS011;67762;52.476;6.046;2023-04-10T06:08:35;1999.90;;;999.90;;
43819;SDS011;67762;52.476;6.046;2023-04-10T06:11:02;1999.90;;;999.90;;
43819;SDS011;67762;52.476;6.046;2023-04-10T06:13:30;1999.90;;;999.90;;
43819;SDS011;67762;52.476;6.046;2023-04-10T06:15:58;1999.90;;;999.90;;
43819;SDS011;67762;52.476;6.046;2023-04-10T06:18:25;1999.90;;;999.90;;
43819;SDS011;67762;52.476;6.046;2023-04-10T06:20:50;1999.90;;;999.90;;
43819;SDS011;67762;52.476;6.046;2023-04-10T06:23:17;1999.90;;;999.90;;
43819;SDS011;67762;52.476;6.046;2023-04-10T06:25:42;1999.90;;;999.90;;
43819;SDS011;67762;52.476;6.046;2023-04-10T06:28:08;1999.90;;;999.90;;
43819;SDS011;67762;52.476;6.046;2023-04-10T06:30:34;1999.90;;;999.90;;
43819;SDS011;67762;52.476;6.046;2023-04-10T06:33:02;1999.90;;;999.90;;
43819;SDS011;67762;52.476;6.046;2023-04-10T06:35:30;1999.90;;;999.90;;
43819;SDS011;67762;52.476;6.046;2023-04-10T06:37:55;1999.90;;;999.90;;
43819;SDS011;67762;52.476;6.046;2023-04-10T06:40:21;547.53;;;294.80;;
43819;SDS011;67762;52.476;6.046;2023-04-10T06:42:47;159.57;;;149.52;;
43819;SDS011;67762;52.476;6.046;2023-04-10T06:45:28;1017.58;;;516.58;;
43819;SDS011;67762;52.476;6.046;2023-04-10T06:47:53;1999.90;;;999.90;;
43819;SDS011;67762;52.476;6.046;2023-04-10T06:50:19;1999.90;;;999.90;;
43819;SDS011;67762;52.476;6.046;2023-04-10T06:52:46;1999.90;;;999.90;;
43819;SDS011;67762;52.476;6.046;2023-04-10T06:55:12;76.43;;;72.10;;
43819;SDS011;67762;52.476;6.046;2023-04-10T06:57:38;129.68;;;121.55;;
43819;SDS011;67762;52.476;6.046;2023-04-10T07:00:05;1999.90;;;999.90;;
43819;SDS011;67762;52.476;6.046;2023-04-10T07:02:31;1046.00;;;543.25;;
43819;SDS011;67762;52.476;6.046;2023-04-10T07:04:57;110.80;;;103.97;;
43819;SDS011;67762;52.476;6.046;2023-04-10T07:07:22;83.68;;;78.53;;
43819;SDS011;67762;52.476;6.046;2023-04-10T07:09:48;150.38;;;141.38;;
43819;SDS011;67762;52.476;6.046;2023-04-10T07:12:14;77.40;;;72.47;;
43819;SDS011;67762;52.476;6.046;2023-04-10T07:14:40;91.85;;;86.13;;
43819;SDS011;67762;52.476;6.046;2023-04-10T07:17:06;127.10;;;119.22;;
43819;SDS011;67762;52.476;6.046;2023-04-10T07:19:32;84.07;;;78.43;;
43819;SDS011;67762;52.476;6.046;2023-04-10T07:21:58;103.40;;;96.70;;
43819;SDS011;67762;52.476;6.046;2023-04-10T07:24:24;103.80;;;97.43;;
43819;SDS011;67762;52.476;6.046;2023-04-10T07:26:49;62.42;;;57.92;;
43819;SDS011;67762;52.476;6.046;2023-04-10T07:29:15;54.35;;;50.58;;
43819;SDS011;67762;52.476;6.046;2023-04-10T07:31:40;45.80;;;42.67;;
43819;SDS011;67762;52.476;6.046;2023-04-10T07:34:06;104.88;;;98.15;;
43819;SDS011;67762;52.476;6.046;2023-04-10T07:36:32;49.58;;;46.25;;
43819;SDS011;67762;52.476;6.046;2023-04-10T07:38:58;75.80;;;71.03;;
43819;SDS011;67762;52.476;6.046;2023-04-10T07:41:24;67.40;;;63.08;;
43819;SDS011;67762;52.476;6.046;2023-04-10T07:43:49;47.42;;;44.00;;
43819;SDS011;67762;52.476;6.046;2023-04-10T07:46:15;71.75;;;67.03;;
43819;SDS011;67762;52.476;6.046;2023-04-10T07:48:41;38.92;;;35.78;;
43819;SDS011;67762;52.476;6.046;2023-04-10T07:51:07;53.53;;;49.83;;
43819;SDS011;67762;52.476;6.046;2023-04-10T07:53:34;50.25;;;46.78;;
43819;SDS011;67762;52.476;6.046;2023-04-10T07:56:01;52.95;;;48.97;;
43819;SDS011;67762;52.476;6.046;2023-04-10T07:58:27;65.20;;;60.60;;
43819;SDS011;67762;52.476;6.046;2023-04-10T08:00:52;47.60;;;44.28;;
43819;SDS011;67762;52.476;6.046;2023-04-10T08:03:18;39.30;;;36.63;;
43819;SDS011;67762;52.476;6.046;2023-04-10T08:05:44;38.30;;;35.78;;
43819;SDS011;67762;52.476;6.046;2023-04-10T08:08:10;42.33;;;39.35;;
43819;SDS011;67762;52.476;6.046;2023-04-10T08:10:36;34.50;;;32.20;;
43819;SDS011;67762;52.476;6.046;2023-04-10T08:13:03;37.72;;;35.13;;
43819;SDS011;67762;52.476;6.046;2023-04-10T08:15:29;49.03;;;45.70;;
43819;SDS011;67762;52.476;6.046;2023-04-10T08:17:55;53.65;;;49.88;;
43819;SDS011;67762;52.476;6.046;2023-04-10T08:20:21;44.25;;;41.55;;
43819;SDS011;67762;52.476;6.046;2023-04-10T08:22:47;33.92;;;31.63;;
43819;SDS011;67762;52.476;6.046;2023-04-10T08:25:12;41.10;;;38.60;;
43819;SDS011;67762;52.476;6.046;2023-04-10T08:27:38;41.85;;;38.83;;
43819;SDS011;67762;52.476;6.046;2023-04-10T08:30:04;46.50;;;43.40;;
43819;SDS011;67762;52.476;6.046;2023-04-10T08:32:30;35.03;;;32.58;;
43819;SDS011;67762;52.476;6.046;2023-04-10T08:34:55;48.88;;;45.88;;
43819;SDS011;67762;52.476;6.046;2023-04-10T08:37:21;58.28;;;54.55;;
43819;SDS011;67762;52.476;6.046;2023-04-10T08:39:47;41.88;;;39.28;;
43819;SDS011;67762;52.476;6.046;2023-04-10T08:42:12;87.90;;;81.72;;
43819;SDS011;67762;52.476;6.046;2023-04-10T08:44:38;53.63;;;49.17;;
43819;SDS011;67762;52.476;6.046;2023-04-10T08:47:05;44.58;;;41.83;;
43819;SDS011;67762;52.476;6.046;2023-04-10T08:52:22;45.55;;;42.47;;
43819;SDS011;67762;52.476;6.046;2023-04-10T08:54:52;44.75;;;42.00;;
43819;SDS011;67762;52.476;6.046;2023-04-10T08:57:18;35.33;;;32.58;;
43819;SDS011;67762;52.476;6.046;2023-04-10T08:59:49;52.38;;;49.03;;
43819;SDS011;67762;52.476;6.046;2023-04-10T09:02:18;42.15;;;39.17;;
43819;SDS011;67762;52.476;6.046;2023-04-10T09:04:46;35.72;;;33.42;;
43819;SDS011;67762;52.476;6.046;2023-04-10T09:07:14;43.20;;;40.15;;
43819;SDS011;67762;52.476;6.046;2023-04-10T09:09:40;42.95;;;39.95;;
43819;SDS011;67762;52.476;6.046;2023-04-10T09:12:06;37.25;;;34.80;;
43819;SDS011;67762;52.476;6.046;2023-04-10T09:14:33;31.65;;;29.50;;
43819;SDS011;67762;52.476;6.046;2023-04-10T09:17:18;51.63;;;48.35;;
43819;SDS011;67762;52.476;6.046;2023-04-10T09:19:48;61.15;;;56.90;;
43819;SDS011;67762;52.476;6.046;2023-04-10T09:22:17;36.88;;;34.47;;
43819;SDS011;67762;52.476;6.046;2023-04-10T09:24:50;32.33;;;30.03;;
43819;SDS011;67762;52.476;6.046;2023-04-10T09:27:33;49.08;;;46.15;;
43819;SDS011;67762;52.476;6.046;2023-04-10T09:30:02;41.00;;;38.38;;
43819;SDS011;67762;52.476;6.046;2023-04-10T09:32:42;51.15;;;47.50;;
43819;SDS011;67762;52.476;6.046;2023-04-10T09:35:09;30.35;;;28.17;;
43819;SDS011;67762;52.476;6.046;2023-04-10T09:37:36;35.65;;;33.15;;
43819;SDS011;67762;52.476;6.046;2023-04-10T09:40:02;40.22;;;37.45;;
43819;SDS011;67762;52.476;6.046;2023-04-10T09:42:29;34.78;;;32.28;;
43819;SDS011;67762;52.476;6.046;2023-04-10T09:44:59;32.65;;;30.55;;
43819;SDS011;67762;52.476;6.046;2023-04-10T09:47:27;41.42;;;38.85;;
43819;SDS011;67762;52.476;6.046;2023-04-10T09:49:53;40.03;;;37.60;;
43819;SDS011;67762;52.476;6.046;2023-04-10T09:52:23;38.13;;;35.42;;
43819;SDS011;67762;52.476;6.046;2023-04-10T09:54:53;33.22;;;31.02;;
43819;SDS011;67762;52.476;6.046;2023-04-10T09:57:24;47.88;;;45.00;;
43819;SDS011;67762;52.476;6.046;2023-04-10T09:59:52;43.20;;;40.17;;
43819;SDS011;67762;52.476;6.046;2023-04-10T10:02:26;38.78;;;36.22;;
43819;SDS011;67762;52.476;6.046;2023-04-10T10:04:54;36.05;;;33.75;;
43819;SDS011;67762;52.476;6.046;2023-04-10T10:07:22;45.70;;;42.83;;
43819;SDS011;67762;52.476;6.046;2023-04-10T10:09:50;30.90;;;28.55;;
43819;SDS011;67762;52.476;6.046;2023-04-10T10:12:23;33.15;;;31.15;;
43819;SDS011;67762;52.476;6.046;2023-04-10T10:17:56;37.28;;;34.95;;
43819;SDS011;67762;52.476;6.046;2023-04-10T10:20:29;50.28;;;46.95;;
43819;SDS011;67762;52.476;6.046;2023-04-10T10:22:57;42.65;;;39.78;;
43819;SDS011;67762;52.476;6.046;2023-04-10T10:25:29;46.90;;;43.70;;
43819;SDS011;67762;52.476;6.046;2023-04-10T10:27:55;63.33;;;59.17;;
43819;SDS011;67762;52.476;6.046;2023-04-10T10:30:25;47.20;;;44.25;;
43819;SDS011;67762;52.476;6.046;2023-04-10T10:32:51;55.25;;;51.95;;
43819;SDS011;67762;52.476;6.046;2023-04-10T10:35:17;46.83;;;43.97;;
43819;SDS011;67762;52.476;6.046;2023-04-10T10:37:43;44.30;;;41.45;;
43819;SDS011;67762;52.476;6.046;2023-04-10T10:40:30;50.97;;;47.42;;
43819;SDS011;67762;52.476;6.046;2023-04-10T10:43:09;40.95;;;38.42;;
43819;SDS011;67762;52.476;6.046;2023-04-10T10:48:22;54.05;;;50.45;;
43819;SDS011;67762;52.476;6.046;2023-04-10T10:50:58;54.85;;;51.35;;
43819;SDS011;67762;52.476;6.046;2023-04-10T10:53:38;72.05;;;67.47;;
43819;SDS011;67762;52.476;6.046;2023-04-10T10:58:45;43.47;;;40.75;;
43819;SDS011;67762;52.476;6.046;2023-04-10T11:01:27;67.68;;;63.58;;
43819;SDS011;67762;52.476;6.046;2023-04-10T11:03:52;34.20;;;32.15;;
43819;SDS011;67762;52.476;6.046;2023-04-10T11:06:19;79.70;;;74.05;;
43819;SDS011;67762;52.476;6.046;2023-04-10T11:08:49;31.05;;;29.00;;
43819;SDS011;67762;52.476;6.046;2023-04-10T11:11:17;95.60;;;89.13;;
43819;SDS011;67762;52.476;6.046;2023-04-10T11:16:16;37.92;;;35.60;;
43819;SDS011;67762;52.476;6.046;2023-04-10T11:28:58;37.47;;;34.85;;
43819;SDS011;67762;52.476;6.046;2023-04-10T11:31:25;42.30;;;39.50;;
43819;SDS011;67762;52.476;6.046;2023-04-10T11:36:28;72.53;;;67.80;;
43819;SDS011;67762;52.476;6.046;2023-04-10T11:39:05;38.22;;;35.85;;
43819;SDS011;67762;52.476;6.046;2023-04-10T11:41:33;33.60;;;31.48;;
43819;SDS011;67762;52.476;6.046;2023-04-10T11:44:03;60.70;;;56.60;;
43819;SDS011;67762;52.476;6.046;2023-04-10T11:46:34;36.53;;;34.33;;
43819;SDS011;67762;52.476;6.046;2023-04-10T11:49:06;89.10;;;83.43;;
43819;SDS011;67762;52.476;6.046;2023-04-10T11:51:36;30.58;;;28.75;;
43819;SDS011;67762;52.476;6.046;2023-04-10T11:56:38;59.72;;;55.72;;
43819;SDS011;67762;52.476;6.046;2023-04-10T11:59:06;31.58;;;29.50;;
43819;SDS011;67762;52.476;6.046;2023-04-10T12:01:38;41.28;;;38.83;;
43819;SDS011;67762;52.476;6.046;2023-04-10T12:04:14;36.70;;;34.28;;
43819;SDS011;67762;52.476;6.046;2023-04-10T12:06:48;38.38;;;36.03;;
43819;SDS011;67762;52.476;6.046;2023-04-10T12:09:16;39.50;;;36.88;;
43819;SDS011;67762;52.476;6.046;2023-04-10T12:11:50;42.97;;;40.33;;
43819;SDS011;67762;52.476;6.046;2023-04-10T12:16:45;37.40;;;35.13;;
43819;SDS011;67762;52.476;6.046;2023-04-10T12:19:11;27.83;;;26.02;;
43819;SDS011;67762;52.476;6.046;2023-04-10T12:21:38;55.08;;;51.60;;
43819;SDS011;67762;52.476;6.046;2023-04-10T12:24:07;78.30;;;73.30;;
43819;SDS011;67762;52.476;6.046;2023-04-10T12:26:33;70.75;;;66.15;;
43819;SDS011;67762;52.476;6.046;2023-04-10T12:28:59;48.10;;;45.00;;
43819;SDS011;67762;52.476;6.046;2023-04-10T12:31:29;120.88;;;113.40;;
43819;SDS011;67762;52.476;6.046;2023-04-10T12:33:57;79.47;;;74.53;;
43819;SDS011;67762;52.476;6.046;2023-04-10T12:36:24;48.67;;;45.60;;
43819;SDS011;67762;52.476;6.046;2023-04-10T12:38:53;44.67;;;41.97;;
43819;SDS011;67762;52.476;6.046;2023-04-10T12:41:20;55.88;;;52.20;;
43819;SDS011;67762;52.476;6.046;2023-04-10T12:43:51;34.80;;;32.78;;
43819;SDS011;67762;52.476;6.046;2023-04-10T12:46:22;32.13;;;30.33;;
43819;SDS011;67762;52.476;6.046;2023-04-10T12:48:52;35.50;;;33.33;;
43819;SDS011;67762;52.476;6.046;2023-04-10T12:51:19;109.95;;;101.95;;
43819;SDS011;67762;52.476;6.046;2023-04-10T12:53:45;31.35;;;29.25;;
43819;SDS011;67762;52.476;6.046;2023-04-10T12:56:11;31.08;;;29.17;;
43819;SDS011;67762;52.476;6.046;2023-04-10T12:59:01;50.90;;;47.87;;
43819;SDS011;67762;52.476;6.046;2023-04-10T13:01:31;40.67;;;38.22;;
43819;SDS011;67762;52.476;6.046;2023-04-10T13:03:57;34.45;;;32.35;;
43819;SDS011;67762;52.476;6.046;2023-04-10T13:06:22;38.83;;;36.60;;
43819;SDS011;67762;52.476;6.046;2023-04-10T13:08:48;33.22;;;31.38;;
43819;SDS011;67762;52.476;6.046;2023-04-10T13:11:16;51.75;;;48.78;;
43819;SDS011;67762;52.476;6.046;2023-04-10T13:13:42;54.15;;;49.67;;
43819;SDS011;67762;52.476;6.046;2023-04-10T13:16:08;45.22;;;42.60;;
43819;SDS011;67762;52.476;6.046;2023-04-10T13:18:36;36.78;;;34.53;;
43819;SDS011;67762;52.476;6.046;2023-04-10T13:21:03;42.92;;;40.38;;
43819;SDS011;67762;52.476;6.046;2023-04-10T13:23:29;48.75;;;45.92;;
43819;SDS011;67762;52.476;6.046;2023-04-10T13:25:55;30.17;;;28.50;;
43819;SDS011;67762;52.476;6.046;2023-04-10T13:28:23;56.22;;;52.95;;
43819;SDS011;67762;52.476;6.046;2023-04-10T13:30:49;45.28;;;42.35;;
43819;SDS011;67762;52.476;6.046;2023-04-10T13:33:16;31.40;;;29.48;;
43819;SDS011;67762;52.476;6.046;2023-04-10T13:35:42;40.10;;;37.72;;
43819;SDS011;67762;52.476;6.046;2023-04-10T13:38:07;34.35;;;32.45;;
43819;SDS011;67762;52.476;6.046;2023-04-10T13:40:35;38.47;;;36.17;;
43819;SDS011;67762;52.476;6.046;2023-04-10T13:43:02;59.72;;;56.28;;
43819;SDS011;67762;52.476;6.046;2023-04-10T13:45:32;86.93;;;80.10;;
43819;SDS011;67762;52.476;6.046;2023-04-10T13:47:59;31.00;;;29.38;;
43819;SDS011;67762;52.476;6.046;2023-04-10T13:50:25;37.33;;;35.22;;
43819;SDS011;67762;52.476;6.046;2023-04-10T13:52:50;35.80;;;33.80;;
43819;SDS011;67762;52.476;6.046;2023-04-10T13:55:16;43.83;;;41.42;;
43819;SDS011;67762;52.476;6.046;2023-04-10T13:57:42;39.95;;;37.83;;
43819;SDS011;67762;52.476;6.046;2023-04-10T14:00:08;29.33;;;27.60;;
43819;SDS011;67762;52.476;6.046;2023-04-10T14:02:40;39.40;;;37.10;;
43819;SDS011;67762;52.476;6.046;2023-04-10T14:05:06;28.92;;;27.33;;
43819;SDS011;67762;52.476;6.046;2023-04-10T14:07:32;44.15;;;41.20;;
43819;SDS011;67762;52.476;6.046;2023-04-10T14:09:58;36.22;;;33.97;;
43819;SDS011;67762;52.476;6.046;2023-04-10T14:12:24;39.30;;;36.92;;
43819;SDS011;67762;52.476;6.046;2023-04-10T14:14:50;36.40;;;34.33;;
43819;SDS011;67762;52.476;6.046;2023-04-10T14:17:16;25.60;;;24.10;;
43819;SDS011;67762;52.476;6.046;2023-04-10T14:19:42;40.10;;;37.72;;
43819;SDS011;67762;52.476;6.046;2023-04-10T14:22:07;62.05;;;58.47;;
43819;SDS011;67762;52.476;6.046;2023-04-10T14:24:33;54.47;;;51.55;;
43819;SDS011;67762;52.476;6.046;2023-04-10T14:26:59;35.75;;;33.72;;
43819;SDS011;67762;52.476;6.046;2023-04-10T14:29:28;46.53;;;43.55;;
43819;SDS011;67762;52.476;6.046;2023-04-10T14:31:54;26.58;;;25.17;;
43819;SDS011;67762;52.476;6.046;2023-04-10T14:34:20;38.15;;;35.88;;
43819;SDS011;67762;52.476;6.046;2023-04-10T14:36:46;34.17;;;32.17;;
43819;SDS011;67762;52.476;6.046;2023-04-10T14:39:12;43.20;;;40.80;;
43819;SDS011;67762;52.476;6.046;2023-04-10T14:41:37;57.65;;;54.00;;
43819;SDS011;67762;52.476;6.046;2023-04-10T14:44:03;117.95;;;110.07;;
43819;SDS011;67762;52.476;6.046;2023-04-10T14:46:31;102.00;;;96.70;;
43819;SDS011;67762;52.476;6.046;2023-04-10T14:48:56;53.42;;;49.95;;
43819;SDS011;67762;52.476;6.046;2023-04-10T14:51:22;65.63;;;61.65;;
43819;SDS011;67762;52.476;6.046;2023-04-10T14:53:48;55.33;;;52.10;;
43819;SDS011;67762;52.476;6.046;2023-04-10T14:56:16;65.95;;;61.65;;
43819;SDS011;67762;52.476;6.046;2023-04-10T14:58:42;36.72;;;34.78;;
43819;SDS011;67762;52.476;6.046;2023-04-10T15:01:11;41.05;;;38.78;;
43819;SDS011;67762;52.476;6.046;2023-04-10T15:03:37;105.95;;;100.10;;
43819;SDS011;67762;52.476;6.046;2023-04-10T15:06:04;52.25;;;49.35;;
43819;SDS011;67762;52.476;6.046;2023-04-10T15:08:30;42.95;;;40.45;;
43819;SDS011;67762;52.476;6.046;2023-04-10T15:10:56;44.17;;;41.83;;